Tiempo atmosférico en la estación meteorológica de Álora, Málaga (181 m.)



Fecha
DESCASC
Temp. máxima en grados centígrados (hora)
DESCASC
Temp. mínima en grados centígrados (hora)
DESCASC
Temp. media en grados centígrados
DESCASC
Racha de viento máxima en m/sg (hora)
DESCASC
Velocidad máxima media en intervalos de 10 minutos(hora)
DESCASC
Precipitaciones diarias en mm
DESCASC
Precipitaciones de 00:00 a 06:00 en mm
DESCASC
Precipitaciones de 06:00 a 12:00 en mm
DESCASC
Precipitaciones de 12:00 a 18:00 en mm
DESCASC
Precipitaciones de 18:00 a 24:00 en mm
DESCASC
04-03-2021 15.3 (15:10) 10.9 (07:50) 13.1 10.83 (15:40) 7.22 (16:00) 0 0 0 0 0
03-03-2021 18.5 (13:30) 9.9 (06:00) 14.2 8.61 (16:40) 6.11 (16:50) 0 0 0 0 0
02-03-2021 21.2 (15:10) 9.4 (07:50) 15.3 6.39 (13:00) 3.89 (18:30) 0 0 0 0 0
01-03-2021 18.5 (16:40) 9.9 (08:10) 14.2 9.17 (00:10) 6.94 (00:10) 1.4 1.2 0 0.2 0
28-02-2021 16.3 (14:10) 12 (00:00) 14.1 15 (23:59) 8.33 (23:59) 1.2 0 0 0 1.2
27-02-2021 15.4 (15:30) 11.6 (00:00) 13.5 9.72 (15:50) 5.28 (16:30) 0 0 0 0 0
26-02-2021 15.9 (16:30) 11 (00:00) 13.4 8.61 (13:20) 5.83 (14:00) 0 0 0 0 0
25-02-2021 15.4 (16:20) 12.2 (00:00) 13.8 9.72 (13:40) 6.39 (00:10) 0 0 0 0 0
24-02-2021 15.8 (14:50) 9.9 (00:00) 12.8 16.11 (16:20) 9.44 (15:10) 0 0 0 0 0
23-02-2021 17.2 (13:20) 6.3 (00:00) 11.8 11.67 (15:00) 7.5 (13:30) 0 0 0 0 0
22-02-2021 17.7 (15:50) 7.5 (00:00) 12.6 9.72 (17:10) 5 (17:10) 0 0 0 0 0
21-02-2021 13 (11:40) 9.4 (00:00) 11.2 15 (13:50) 7.22 (13:50) 6.8 0 0 6.8 0
20-02-2021 16.8 (13:20) 8.1 (00:00) 12.4 8.61 (14:10) 6.11 (12:40) 0 0 0 0 0
19-02-2021 21.4 (15:00) 6.1 (00:00) 13.7 7.22 (14:00) 5.56 (14:00) 0 0 0 0 0
18-02-2021 23.7 (15:50) 6.4 (00:00) 15.1 5 (16:30) 3.33 (21:50) 0 0 0 0 0
17-02-2021 22.1 (16:40) 6.3 (00:00) 14.2 6.94 (14:40) 4.72 (14:40) 0 0 0 0 0
16-02-2021 19.8 (16:40) 7.2 (00:00) 13.5 5.83 (12:50) 3.33 (12:40) 0 0 0 0 0
15-02-2021 16.4 (13:50) 10.1 (00:00) 13.3 14.44 (13:10) 9.72 (13:10) 0 0 0 0 0
14-02-2021 19.2 (12:50) 6.5 (00:00) 12.9 11.39 (14:10) 6.94 (13:30) 0 0 0 0 0
13-02-2021 21.8 (17:10) 10.4 (00:00) 16.1 8.61 (15:40) 5 (03:50) 0 0 0 0 0
12-02-2021 21 (14:40) 13.1 (00:00) 17.1 11.39 (19:30) 6.67 (13:40) 0 0 0 0 0
11-02-2021 21.2 (16:10) 13.9 (00:00) 17.6 11.11 (14:10) 6.11 (14:10) 0 0 0 0 0
10-02-2021 20.5 (15:20) 12.1 (00:00) 16.3 15 (02:10) 8.06 (02:10) 0.2 0.2 0 0 0
09-02-2021 18.3 (15:50) 10.2 (00:00) 14.2 13.06 (16:20) 8.06 (16:20) 1.4 0 0 0.6 0.8
08-02-2021 17.7 (15:00) 9.8 (00:00) 13.8 14.17 (13:10) 8.33 (15:30) 6.8 0.6 6.2 0 0
07-02-2021 15 (14:20) 9.2 (00:00) 12.1 15.83 (17:50) 8.89 (14:30) 0 0 0 0 0
06-02-2021 17.4 (14:00) 9.8 (00:00) 13.6 8.89 (15:50) 6.67 (16:00) 1.2 1 0.2 0 0
05-02-2021 19.2 (15:00) 9 (00:00) 14.1 7.5 (19:30) 5.56 (18:10) 0 0 0 0 0
04-02-2021 19.4 (14:20) 9.8 (00:00) 14.6 7.78 (13:30) 5.56 (15:00) 0 0 0 0 0

Gráficas

Temp. máximas Temp. mínimas Temp. medias Precipitaciones Rachas de viento máximas Velocidades máximas media en intervalos de 10 minutos

Datos horarios

Fecha y hora oficial Temperatura (ºC) Velocidad del viento (km/h) Dirección del viento Racha (km/h) Dirección de racha Precipitación (mm) Presión (hPa) Tendencia (hPa) Humedad (%)
2021-03-05 23:00:00 -- -- -- -- -- -- -- -- --
2021-03-05 22:00:00 10.5 0 Calma 8 Nordeste 0 -- -- 95
2021-03-05 21:00:00 10.4 2 Norte 6 Oeste 0 -- -- 94
2021-03-05 20:00:00 10.5 0 Calma 10 Oeste 1.8 -- -- 93
2021-03-05 19:00:00 10.7 2 Sudeste 12 Sudeste 4.6 -- -- 91
2021-03-05 18:00:00 11.5 12 Sudeste 45 Sudeste 3.4 -- -- 85
2021-03-05 17:00:00 13.8 25 Este 40 Este 0 -- -- 78
2021-03-05 16:00:00 13.5 17 Sudeste 39 Sudeste 0 -- -- 80
2021-03-05 15:00:00 14.2 24 Sudeste 40 Sudeste 0 -- -- 74
2021-03-05 14:00:00 14.8 21 Este 42 Sudeste 0 -- -- 69
2021-03-05 13:00:00 15.3 24 Sudeste 46 Este 0 -- -- 66
2021-03-05 12:00:00 13.8 10 Este 25 Sudeste 0 -- -- 77
2021-03-05 11:00:00 12.9 8 Sudeste 27 Sudeste 0 -- -- 83
2021-03-05 10:00:00 12.9 10 Sudeste 19 Sur 0 -- -- 79
2021-03-05 09:00:00 12.5 4 Sudeste 13 Sudeste 0 -- -- 84
2021-03-05 08:00:00 12.2 0 Calma 9 Oeste 0 -- -- 82
2021-03-05 07:00:00 12.2 0 Calma 10 Sudeste 0 -- -- 83
2021-03-05 06:00:00 12.3 4 Sudeste 9 Sur 0 -- -- 84
2021-03-05 05:00:00 12.5 6 Sudeste 14 Sudeste 0 -- -- 81
2021-03-05 04:00:00 12.7 11 Sudeste 26 Sudeste 0 -- -- 79
2021-03-05 03:00:00 12.8 8 Sur 24 Sudeste 0 -- -- 80
2021-03-05 02:00:00 12.9 12 Sudeste 22 Sudeste 0 -- -- 79
2021-03-05 01:00:00 12.6 9 Sur 15 Sudeste 0 -- -- 83
2021-03-05 00:00:00 12.8 10 Sur 17 Sur 0 -- -- 84
2021-03-04 23:00:00 12.8 6 Sur 21 Este 0 -- -- 82
2021-03-04 22:00:00 12.3 8 Sudeste 11 Sudeste 0 -- -- 87
2021-03-04 21:00:00 12.3 6 Sudeste 17 Sur 0 -- -- 85
2021-03-04 20:00:00 12.7 12 Sur 20 Sur 0 -- -- 82
2021-03-04 19:00:00 13.5 13 Sur 29 Este 0 -- -- 77
2021-03-04 18:00:00 14 17 Sudeste 29 Sudeste 0 -- -- 70
2021-03-04 17:00:00 14.3 20 Sudeste 34 Sudeste 0 -- -- 70
2021-03-04 16:00:00 14.7 26 Sudeste 39 Este 0 -- -- 65
2021-03-04 15:00:00 15.1 22 Sudeste 37 Sudeste 0 -- -- 65
2021-03-04 14:00:00 14.7 19 Sudeste 30 Sudeste 0 -- -- 66
2021-03-04 13:00:00 14.2 19 Sudeste 28 Sudeste 0 -- -- 70
2021-03-04 12:00:00 13.7 17 Sudeste 30 Sur 0 -- -- 75
2021-03-04 11:00:00 13.5 14 Sudeste 28 Sudeste 0 -- -- 75
2021-03-04 10:00:00 13.6 14 Sudeste 22 Sudeste 0 -- -- 77
2021-03-04 09:00:00 11.3 7 Sudeste 13 Sudeste 0 -- -- 90
2021-03-04 08:00:00 11 10 Sudeste 15 Sur 0 -- -- 90
2021-03-04 07:00:00 11.6 9 Sudeste 20 Sudeste 0 -- -- 86
2021-03-04 06:00:00 12.5 11 Sudeste 23 Sudeste 0 -- -- 81
2021-03-04 05:00:00 13 17 Sudeste 31 Este 0 -- -- 78
2021-03-04 04:00:00 13.2 23 Sudeste 34 Este 0 -- -- 78
2021-03-04 03:00:00 13.3 19 Sudeste 32 Sudeste 0 -- -- 80
2021-03-04 02:00:00 13.1 17 Sudeste 32 Sudeste 0 -- -- 82
2021-03-04 01:00:00 12.9 12 Sudeste 26 Sudeste 0 -- -- 87
2021-03-04 00:00:00 13.3 19 Sudeste 30 Sudeste 0 -- -- 83
2021-03-03 23:00:00 13.6 6 Sur 15 Sur 0 -- -- 81
2021-03-03 22:00:00 13.7 5 Sudeste 16 Sur 0 -- -- 80
2021-03-03 21:00:00 13.8 13 Sur 17 Sur 0 -- -- 80
2021-03-03 20:00:00 13.9 8 Sudeste 18 Sur 0 -- -- 79
2021-03-03 19:00:00 14.1 14 Sudeste 24 Sudeste 0 -- -- 78
2021-03-03 18:00:00 14.7 13 Sudeste 28 Este 0 -- -- 78
2021-03-03 17:00:00 15.7 18 Sudeste 31 Sudeste 0 -- -- 76
2021-03-03 16:00:00 16.7 17 Sudeste 27 Sur 0 -- -- 74
2021-03-03 15:00:00 18 15 Sur 26 Sur 0 -- -- 69
2021-03-03 14:00:00 18 13 Sur 23 Sur 0 -- -- 67
2021-03-03 13:00:00 17.6 14 Sudeste 22 Sudeste 0 -- -- 69
2021-03-03 12:00:00 15.9 13 Sudeste 19 Sudeste 0 -- -- 75
2021-03-03 11:00:00 14.1 2 Sudeste 5 Sudeste 0 -- -- 91
2021-03-03 10:00:00 12.1 0 Calma 4 Sudeste 0 -- -- 94
2021-03-03 09:00:00 10.6 0 Calma 6 Noroeste 0 -- -- 94
2021-03-03 08:00:00 10.1 0 Calma 8 Noroeste 0 -- -- 94
2021-03-03 07:00:00 10.2 2 Este 6 Noroeste 0 -- -- 94
2021-03-03 06:00:00 9.9 2 Nordeste 5 Oeste 0 -- -- 94
2021-03-03 05:00:00 10.4 3 Noroeste 5 Noroeste 0 -- -- 93
2021-03-03 04:00:00 10.8 0 Calma 5 Noroeste 0 -- -- 93
2021-03-03 03:00:00 11.1 4 Noroeste 4 Noroeste 0 -- -- 92
2021-03-03 02:00:00 11.5 2 Sudoeste 2 Sudoeste 0 -- -- 90
2021-03-03 01:00:00 12.2 0 Calma 3 Sudoeste 0 -- -- 89
2021-03-03 00:00:00 12.7 0 Calma 10 Nordeste 0 -- -- 88
2021-03-02 23:00:00 13.7 5 Este 9 Este 0 -- -- 84
2021-03-02 22:00:00 14.6 6 Sudeste 12 Este 0 -- -- 81
2021-03-02 21:00:00 15.4 4 Sudeste 10 Sudoeste 0 -- -- 77
2021-03-02 20:00:00 16.2 2 Sudeste 14 Sudoeste 0 -- -- 73
2021-03-02 19:00:00 17.5 10 Sudoeste 20 Sur 0 -- -- 71
2021-03-02 18:00:00 19.7 9 Sur 14 Oeste 0 -- -- 63
2021-03-02 17:00:00 21 4 Noroeste 17 Oeste 0 -- -- 53
2021-03-02 16:00:00 20.4 6 Noroeste 22 Oeste 0 -- -- 54
2021-03-02 15:00:00 21 9 Noroeste 19 Oeste 0 -- -- 55
2021-03-02 14:00:00 20.6 7 Noroeste 23 Norte 0 -- -- 54
2021-03-02 13:00:00 19.3 9 Norte 23 Norte 0 -- -- 56
2021-03-02 12:00:00 17.9 9 Oeste 18 Oeste 0 -- -- 63
2021-03-02 11:00:00 15.1 6 Noroeste 15 Noroeste 0 -- -- 78
2021-03-02 10:00:00 12.4 3 Nordeste 6 Nordeste 0 -- -- 90
2021-03-02 09:00:00 10.1 2 Norte 5 Norte 0 -- -- 93
2021-03-02 08:00:00 9.4 0 Calma 6 Nordeste 0 -- -- 92
2021-03-02 07:00:00 9.9 0 Calma 8 Norte 0 -- -- 92
2021-03-02 06:00:00 10.3 5 Noroeste 6 Norte 0 -- -- 91
2021-03-02 05:00:00 10.5 0 Calma 6 Nordeste 0 -- -- 90
2021-03-02 04:00:00 11.1 3 Noroeste 9 Nordeste 0 -- -- 89
2021-03-02 03:00:00 11.6 4 Nordeste 8 Nordeste 0 -- -- 87
2021-03-02 02:00:00 12.3 6 Nordeste 9 Nordeste 0 -- -- 85
2021-03-02 01:00:00 12.6 0 Calma 6 Nordeste 0 -- -- 85
2021-03-02 00:00:00 12.7 2 Sudeste 5 Nordeste 0 -- -- 83
2021-03-01 23:00:00 13.2 0 Calma 8 Norte 0 -- -- 81
2021-03-01 22:00:00 13.5 4 Norte 8 Sudeste 0 -- -- 79
2021-03-01 21:00:00 14.1 6 Sudeste 16 Sudeste 0 -- -- 77
2021-03-01 20:00:00 15.3 4 Sudeste 7 Sudeste 0 -- -- 71
2021-03-01 19:00:00 16.8 2 Sudeste 6 Sudoeste 0 -- -- 65
2021-03-01 18:00:00 18.2 4 Sudoeste 8 Oeste 0 -- -- 59
2021-03-01 17:00:00 18.1 4 Sudeste 17 Sudoeste 0 -- -- 58
2021-03-01 16:00:00 18.1 4 Sur 21 Sudoeste 0 -- -- 58
2021-03-01 15:00:00 17.7 12 Sudoeste 18 Sur 0 -- -- 62
2021-03-01 14:00:00 17.3 4 Sudeste 16 Este 0.2 -- -- 66
2021-03-01 13:00:00 17.1 11 Sudeste 19 Sur 0 -- -- 70
2021-03-01 12:00:00 15.2 4 Sudeste 10 Sudeste 0 -- -- 76
2021-03-01 11:00:00 12.8 0 Calma 6 Sudeste 0 -- -- 93
2021-03-01 10:00:00 11.2 0 Calma 6 Noroeste 0 -- -- 95
2021-03-01 09:00:00 10.4 0 Calma 4 Oeste 0 -- -- 95
2021-03-01 08:00:00 10.2 2 Norte 10 Norte 0 -- -- 94
2021-03-01 07:00:00 10.7 4 Oeste 8 Nordeste 0 -- -- 94
2021-03-01 06:00:00 10.9 3 Oeste 5 Oeste 0 -- -- 94
2021-03-01 05:00:00 11.1 0 Calma 8 Norte 0.6 -- -- 93
2021-03-01 04:00:00 11.2 2 Norte 6 Nordeste 0 -- -- 93
2021-03-01 03:00:00 11.4 0 Calma 7 Este 0 -- -- 93
2021-03-01 02:00:00 11.5 5 Sudeste 9 Sudeste 0.4 -- -- 92
2021-03-01 01:00:00 11.8 4 Sur 33 Sudeste 0.2 -- -- 91
2021-03-01 00:00:00 12 30 Sudeste 54 Sudeste 1.2 -- -- 91
2021-02-28 23:00:00 12.3 6 Sudeste 11 Sudeste 0 -- -- 86
2021-02-28 22:00:00 12.8 3 Este 6 Este 0 -- -- 84
2021-02-28 21:00:00 12.7 4 Sudeste 9 Sur 0 -- -- 84
2021-02-28 20:00:00 13.3 4 Sudeste 16 Sur 0 -- -- 81
2021-02-28 19:00:00 13.9 13 Sur 23 Sur 0 -- -- 79
2021-02-28 18:00:00 14.5 17 Sur 24 Sur 0 -- -- 74
2021-02-28 17:00:00 14.4 19 Sudeste 35 Sudeste 0 -- -- 72
2021-02-28 16:00:00 15.7 25 Sudeste 37 Sudeste 0 -- -- 64
2021-02-28 15:00:00 15.6 19 Sudeste 38 Sudeste 0 -- -- 60
2021-02-28 14:00:00 16.1 23 Sudeste 43 Sur 0 -- -- 62
2021-02-28 13:00:00 15.2 24 Sur 36 Sur 0 -- -- 65
2021-02-28 12:00:00 14.3 20 Sudeste 34 Sur 0 -- -- 70
2021-02-28 11:00:00 13.5 17 Sudeste 27 Sudeste 0 -- -- 74
2021-02-28 10:00:00 12.8 10 Sudeste 15 Sudeste 0 -- -- 78
2021-02-28 09:00:00 12.2 6 Sur 17 Sur 0 -- -- 80
2021-02-28 08:00:00 12.1 5 Sudeste 12 Sudeste 0 -- -- 81
2021-02-28 07:00:00 12.2 5 Este 12 Sur 0 -- -- 81
2021-02-28 06:00:00 12.3 9 Sudeste 18 Sudeste 0 -- -- 80
2021-02-28 05:00:00 12.1 6 Sudeste 21 Sudeste 0 -- -- 82
2021-02-28 04:00:00 12.3 14 Sur 21 Sur 0 -- -- 85
2021-02-28 03:00:00 12.4 12 Sudeste 23 Sudeste 0 -- -- 85
2021-02-28 02:00:00 12.5 14 Sudeste 25 Sudeste 0 -- -- 84
2021-02-28 01:00:00 12.4 15 Sudeste 21 Sur 0 -- -- 86
2021-02-28 00:00:00 12.4 12 Sur 26 Sudeste 0 -- -- 84
2021-02-27 23:00:00 12.5 10 Sudeste 15 Sur 0 -- -- 85
2021-02-27 22:00:00 12.6 10 Sur 18 Sur 0 -- -- 84
2021-02-27 21:00:00 12.3 12 Sur 15 Sudeste 0 -- -- 84
2021-02-27 20:00:00 12.1 8 Sudeste 19 Sudeste 0 -- -- 80
2021-02-27 19:00:00 13.3 10 Sudeste 24 Sudeste 0 -- -- 74
2021-02-27 18:00:00 14 13 Sudeste 23 Sudeste 0 -- -- 71
2021-02-27 17:00:00 14.3 13 Sudeste 27 Sudeste 0 -- -- 69
2021-02-27 16:00:00 14.9 18 Sudeste 35 Sudeste 0 -- -- 65
2021-02-27 15:00:00 15 17 Sudeste 29 Este 0 -- -- 64
2021-02-27 14:00:00 14.5 15 Sur 24 Sur 0 -- -- 69
2021-02-27 13:00:00 14.5 16 Sur 30 Sur 0 -- -- 73
2021-02-27 12:00:00 14.2 12 Sur 17 Sur 0 -- -- 73
2021-02-27 11:00:00 13.6 8 Sur 11 Sur 0 -- -- 81
2021-02-27 10:00:00 12.5 2 Sur 4 Sudeste 0 -- -- 85
2021-02-27 09:00:00 11.8 3 Sur 6 Sur 0 -- -- 86
2021-02-27 08:00:00 11.8 3 Sudeste 10 Sur 0 -- -- 87
2021-02-27 07:00:00 11.7 5 Sudeste 9 Sudeste 0 -- -- 89
2021-02-27 06:00:00 11.6 6 Sudeste 12 Sur 0 -- -- 91
2021-02-27 05:00:00 11.7 9 Sur 13 Sur 0 -- -- 90
2021-02-27 04:00:00 11.8 6 Sur 9 Sur 0 -- -- 90
2021-02-27 03:00:00 11.9 3 Sur 7 Nordeste 0 -- -- 91
2021-02-27 02:00:00 11.6 3 Sudeste 8 Este 0 -- -- 90
2021-02-27 01:00:00 11.9 4 Este 7 Este 0 -- -- 90
2021-02-27 00:00:00 11.6 3 Este 9 Sudeste 0 -- -- 90
2021-02-26 23:00:00 11.8 0 Calma 8 Sudeste 0 -- -- 88
2021-02-26 22:00:00 12.3 8 Sudeste 10 Sudeste 0 -- -- 87
2021-02-26 21:00:00 12.6 0 Calma 12 Sur 0 -- -- 84
2021-02-26 20:00:00 13.1 9 Sudeste 14 Sudeste 0 -- -- 81
2021-02-26 19:00:00 13.7 10 Sudeste 15 Sur 0 -- -- 78
2021-02-26 18:00:00 14.6 12 Sudeste 21 Sur 0 -- -- 74
2021-02-26 17:00:00 15.6 14 Sur 24 Sur 0 -- -- 71
2021-02-26 16:00:00 15.3 19 Sur 25 Sudeste 0 -- -- 73
2021-02-26 15:00:00 14.9 14 Sudeste 28 Sur 0 -- -- 73
2021-02-26 14:00:00 15.2 21 Sur 31 Sur 0 -- -- 74
2021-02-26 13:00:00 14.4 17 Sudeste 28 Sur 0 -- -- 77
2021-02-26 12:00:00 14.5 20 Sur 30 Sur 0 -- -- 77
2021-02-26 11:00:00 14 16 Sur 26 Sur 0 -- -- 81
2021-02-26 10:00:00 12.6 7 Sudeste 11 Sudeste 0 -- -- 90
2021-02-26 09:00:00 11.6 3 Este 14 Este 0 -- -- 90
2021-02-26 08:00:00 11.2 7 Este 13 Este 0 -- -- 90
2021-02-26 07:00:00 11.1 0 Calma 15 Este 0 -- -- 90
2021-02-26 06:00:00 11.3 4 Nordeste 10 Este 0 -- -- 90
2021-02-26 05:00:00 11.8 8 Este 11 Nordeste 0 -- -- 89
2021-02-26 04:00:00 12.5 5 Este 10 Sudeste 0 -- -- 87
2021-02-26 03:00:00 12.5 8 Sudeste 11 Sudeste 0 -- -- 86
2021-02-26 02:00:00 12.4 7 Sudeste 11 Sur 0 -- -- 87
2021-02-26 01:00:00 12.9 7 Sudeste 12 Sudeste 0 -- -- 86
2021-02-26 00:00:00 12.8 8 Sudeste 12 Sur 0 -- -- 87
2021-02-25 23:00:00 13 8 Sudeste 11 Sudeste 0 -- -- 84
2021-02-25 22:00:00 13 7 Sudeste 12 Sudeste 0 -- -- 85
2021-02-25 21:00:00 13.3 7 Sudeste 11 Sudeste 0 -- -- 84
2021-02-25 20:00:00 13.3 4 Sudeste 16 Sur 0 -- -- 82
2021-02-25 19:00:00 14 9 Sur 22 Sur 0 -- -- 79
2021-02-25 18:00:00 14.9 14 Sur 23 Sur 0 -- -- 76
2021-02-25 17:00:00 15.1 16 Sur 22 Sur 0 -- -- 75
2021-02-25 16:00:00 15 17 Sudeste 28 Sudeste 0 -- -- 74
2021-02-25 15:00:00 14.8 17 Sudeste 27 Sur 0 -- -- 76
2021-02-25 14:00:00 14.7 18 Sudeste 35 Sudeste 0 -- -- 76
2021-02-25 13:00:00 14.9 18 Sudeste 31 Sudeste 0 -- -- 76
2021-02-25 12:00:00 14.8 19 Sudeste 30 Sur 0 -- -- 76
2021-02-25 11:00:00 14.2 14 Sur 23 Sur 0 -- -- 79
2021-02-25 10:00:00 13.3 13 Sur 21 Sur 0 -- -- 81
2021-02-25 09:00:00 12.6 10 Sudeste 15 Sudeste 0 -- -- 85
2021-02-25 08:00:00 12.5 10 Sudeste 14 Sudeste 0 -- -- 84
2021-02-25 07:00:00 12.3 5 Sudeste 10 Sudeste 0 -- -- 85
2021-02-25 06:00:00 12.2 9 Sudeste 14 Sudeste 0 -- -- 86
2021-02-25 05:00:00 12.5 8 Sudeste 14 Sur 0 -- -- 84
2021-02-25 04:00:00 12.7 16 Sur 31 Sur 0 -- -- 82
2021-02-25 03:00:00 12.9 15 Sur 26 Sudeste 0 -- -- 83
2021-02-25 02:00:00 13.1 16 Sur 33 Sur 0 -- -- 83
2021-02-25 01:00:00 13.1 18 Sur 32 Sur 0 -- -- 83
2021-02-25 00:00:00 13.4 24 Sudeste 50 Sur 0 -- -- 82
2021-02-24 23:00:00 13.6 26 Sudeste 41 Sudeste 0 -- -- 81
2021-02-24 22:00:00 13.4 23 Sudeste 38 Sur 0 -- -- 84
2021-02-24 21:00:00 13.1 22 Sudeste 31 Sur 0 -- -- 84
2021-02-24 20:00:00 13 14 Sur 31 Sur 0 -- -- 83
2021-02-24 19:00:00 13.7 21 Sudeste 35 Sudeste 0 -- -- 78
2021-02-24 18:00:00 14.4 24 Sudeste 46 Sudeste 0 -- -- 72
2021-02-24 17:00:00 14.8 28 Sudeste 58 Este 0 -- -- 70
2021-02-24 16:00:00 15.5 27 Sudeste 50 Sudeste 0 -- -- 72
2021-02-24 15:00:00 15.6 31 Sudeste 46 Sur 0 -- -- 72
2021-02-24 14:00:00 15 27 Sudeste 39 Sudeste 0 -- -- 76
2021-02-24 13:00:00 14.4 19 Sudeste 37 Sudeste 0 -- -- 76
2021-02-24 12:00:00 14.3 23 Sudeste 46 Sudeste 0 -- -- 74
2021-02-24 11:00:00 14 24 Sudeste 36 Sudeste 0 -- -- 77
2021-02-24 10:00:00 12.9 17 Sudeste 24 Sudeste 0 -- -- 82
2021-02-24 09:00:00 12.3 14 Sudeste 23 Sur 0 -- -- 83
2021-02-24 08:00:00 11.8 14 Sudeste 33 Sudeste 0 -- -- 82
2021-02-24 07:00:00 11.6 14 Sudeste 26 Sudeste 0 -- -- 85
2021-02-24 06:00:00 12.4 19 Sudeste 39 Este 0 -- -- 80
2021-02-24 05:00:00 12.8 23 Sudeste 41 Este 0 -- -- 77
2021-02-24 04:00:00 12.6 23 Sudeste 42 Sudeste 0 -- -- 80
2021-02-24 03:00:00 12.6 26 Sudeste 38 Sudeste 0 -- -- 81
2021-02-24 02:00:00 11.3 15 Sudeste 24 Sudeste 0 -- -- 87
2021-02-24 01:00:00 10.3 12 Sudeste 17 Sudeste 0 -- -- 89
2021-02-24 00:00:00 10.1 4 Sudeste 7 Sudeste 0 -- -- 85
2021-02-23 23:00:00 10.2 0 Calma 5 Oeste 0 -- -- 85
2021-02-23 22:00:00 11 0 Calma 6 Nordeste 0 -- -- 82
2021-02-23 21:00:00 11.8 3 Este 7 Sudoeste 0 -- -- 80
2021-02-23 20:00:00 12.5 2 Sur 14 Sur 0 -- -- 76
2021-02-23 19:00:00 13.6 14 Sudeste 30 Sudeste 0 -- -- 67
2021-02-23 18:00:00 15.2 18 Sudeste 36 Sudeste 0 -- -- 57
2021-02-23 17:00:00 16 23 Sudeste 36 Sudeste 0 -- -- 52
2021-02-23 16:00:00 16.8 21 Sudeste 34 Sudeste 0 -- -- 49
2021-02-23 15:00:00 16.8 22 Sudeste 42 Sudeste 0 -- -- 49
2021-02-23 14:00:00 16.8 25 Sudeste 40 Sudeste 0 -- -- 45
2021-02-23 13:00:00 16.7 21 Sudeste 34 Sudeste 0 -- -- 47
2021-02-23 12:00:00 15.9 7 Sur 17 Sur 0 -- -- 50
2021-02-23 11:00:00 12.7 2 Norte 8 Este 0 -- -- 71
2021-02-23 10:00:00 8.8 2 Sudoeste 6 Nordeste 0 -- -- 81
2021-02-23 09:00:00 7.1 0 Calma 9 Norte 0 -- -- 86
2021-02-23 08:00:00 6.6 2 Noroeste 20 Noroeste 0 -- -- 84
2021-02-23 07:00:00 7.5 8 Noroeste 19 Norte 0 -- -- 82
2021-02-23 06:00:00 8.1 10 Noroeste 18 Norte 0 -- -- 82
2021-02-23 05:00:00 7.9 10 Noroeste 24 Norte 0 -- -- 82
2021-02-23 04:00:00 8 12 Noroeste 19 Norte 0 -- -- 82
2021-02-23 03:00:00 8.5 9 Noroeste 22 Norte 0 -- -- 80
2021-02-23 02:00:00 8.7 8 Noroeste 18 Norte 0 -- -- 79
2021-02-23 01:00:00 8.7 5 Noroeste 12 Noroeste 0 -- -- 77
2021-02-23 00:00:00 9.3 7 Noroeste 13 Norte 0 -- -- 74
2021-02-22 23:00:00 9.6 3 Este 14 Norte 0 -- -- 72
2021-02-22 22:00:00 10.3 5 Noroeste 12 Nordeste 0 -- -- 68
2021-02-22 21:00:00 11.2 10 Nordeste 13 Nordeste 0 -- -- 64
2021-02-22 20:00:00 12 5 Noroeste 18 Oeste 0 -- -- 61
2021-02-22 19:00:00 13.9 11 Noroeste 30 Noroeste 0 -- -- 54
2021-02-22 18:00:00 16.1 15 Noroeste 35 Oeste 0 -- -- 48
2021-02-22 17:00:00 15.6 15 Noroeste 34 Oeste 0 -- -- 49
2021-02-22 16:00:00 17.4 17 Oeste 33 Noroeste 0 -- -- 45
2021-02-22 15:00:00 17.4 13 Noroeste 32 Oeste 0 -- -- 42
2021-02-22 14:00:00 16.3 12 Noroeste 33 Noroeste 0 -- -- 49
2021-02-22 13:00:00 15.1 12 Noroeste 29 Noroeste 0 -- -- 51
2021-02-22 12:00:00 14 11 Noroeste 30 Noroeste 0 -- -- 56
2021-02-22 11:00:00 12.3 11 Noroeste 27 Oeste 0 -- -- 64
2021-02-22 10:00:00 10.2 4 Norte 13 Norte 0 -- -- 75
2021-02-22 09:00:00 8.2 7 Noroeste 13 Oeste 0 -- -- 79
2021-02-22 08:00:00 7.5 2 Norte 8 Noroeste 0 -- -- 78
2021-02-22 07:00:00 7.6 5 Norte 17 Noroeste 0 -- -- 80
2021-02-22 06:00:00 7.7 5 Noroeste 16 Noroeste 0 -- -- 82
2021-02-22 05:00:00 8.6 9 Noroeste 22 Oeste 0 -- -- 79
2021-02-22 04:00:00 9.2 7 Noroeste 18 Oeste 0 -- -- 79
2021-02-22 03:00:00 9.8 6 Noroeste 21 Noroeste 0 -- -- 77
2021-02-22 02:00:00 9.8 8 Noroeste 18 Noroeste 0 -- -- 76
2021-02-22 01:00:00 9.5 7 Noroeste 33 Noroeste 0 -- -- 78
2021-02-22 00:00:00 10.2 15 Noroeste 37 Noroeste 0 -- -- 74
2021-02-21 23:00:00 9.6 6 Noroeste 15 Oeste 0 -- -- 77
2021-02-21 22:00:00 10.2 4 Norte 12 Noroeste 0 -- -- 73
2021-02-21 21:00:00 10.5 5 Norte 13 Noroeste 0 -- -- 73
2021-02-21 20:00:00 10.9 4 Norte 27 Oeste 0 -- -- 72
2021-02-21 19:00:00 11.3 7 Noroeste 37 Oeste 0 -- -- 71
2021-02-21 18:00:00 11.7 19 Oeste 48 Oeste 0.2 -- -- 71
2021-02-21 17:00:00 12.7 15 Noroeste 40 Noroeste 0 -- -- 72
2021-02-21 16:00:00 12.6 10 Noroeste 28 Oeste 0 -- -- 82
2021-02-21 15:00:00 12 7 Nordeste 21 Sudeste 0.2 -- -- 91
2021-02-21 14:00:00 11 16 Sur 54 Sur 3.2 -- -- 90
2021-02-21 13:00:00 11.6 8 Sudeste 30 Sur 3.2 -- -- 89
2021-02-21 12:00:00 12.8 8 Sudeste 12 Sur 0 -- -- 83
2021-02-21 11:00:00 12 0 Calma 8 Oeste 0 -- -- 89
2021-02-21 10:00:00 11.3 0 Calma 5 Nordeste 0 -- -- 90
2021-02-21 09:00:00 11 4 Nordeste 9 Sur 0 -- -- 90
2021-02-21 08:00:00 11.3 3 Noroeste 12 Oeste 0 -- -- 87
2021-02-21 07:00:00 11.5 4 Norte 9 Norte 0 -- -- 88
2021-02-21 06:00:00 11.3 5 Noroeste 18 Nordeste 0 -- -- 89
2021-02-21 05:00:00 11.5 4 Noroeste 13 Nordeste 0 -- -- 88
2021-02-21 04:00:00 12.2 3 Norte 6 Norte 0 -- -- 87
2021-02-21 03:00:00 12.4 4 Este 10 Este 0 -- -- 87
2021-02-21 02:00:00 12.6 4 Este 9 Sudeste 0 -- -- 86
2021-02-21 01:00:00 12.7 5 Sudeste 11 Este 0 -- -- 86
2021-02-21 00:00:00 12.6 5 Sudeste 8 Sudeste 0 -- -- 86
2021-02-20 23:00:00 12.5 5 Sur 8 Sudeste 0 -- -- 85
2021-02-20 22:00:00 12.8 4 Sudeste 9 Sur 0 -- -- 83
2021-02-20 21:00:00 12.9 9 Sudeste 24 Sudeste 0 -- -- 81
2021-02-20 20:00:00 13.1 16 Sudeste 23 Sudeste 0 -- -- 80
2021-02-20 19:00:00 13.3 14 Sudeste 26 Sudeste 0 -- -- 79
2021-02-20 18:00:00 14.2 18 Este 25 Este 0 -- -- 77
2021-02-20 17:00:00 15.6 15 Este 24 Sudeste 0 -- -- 71
2021-02-20 16:00:00 15.9 16 Sudeste 29 Sudeste 0 -- -- 70
2021-02-20 15:00:00 16.8 16 Sudeste 31 Sudeste 0 -- -- 65
2021-02-20 14:00:00 16.8 21 Sudeste 31 Sur 0 -- -- 64
2021-02-20 13:00:00 16.6 20 Sur 30 Sur 0 -- -- 69
2021-02-20 12:00:00 15.2 16 Sur 24 Sur 0 -- -- 77
2021-02-20 11:00:00 12.8 8 Sur 12 Sudeste 0 -- -- 90
2021-02-20 10:00:00 11.2 4 Sudeste 9 Sudeste 0 -- -- 94
2021-02-20 09:00:00 9.9 0 Calma 6 Norte 0 -- -- 95
2021-02-20 08:00:00 8.7 4 Este 11 Noroeste 0 -- -- 95
2021-02-20 07:00:00 8.6 4 Sudeste 9 Sudeste 0 -- -- 94
2021-02-20 06:00:00 8.5 0 Calma 18 Este 0 -- -- 93
2021-02-20 05:00:00 9.2 5 Este 12 Nordeste 0 -- -- 92
2021-02-20 04:00:00 9.7 3 Sudeste 9 Este 0 -- -- 94
2021-02-20 03:00:00 8.8 0 Calma 9 Este 0 -- -- 92
2021-02-20 02:00:00 8.6 3 Sudoeste 5 Este 0 -- -- 89
2021-02-20 01:00:00 8.9 3 Sudoeste 9 Este 0 -- -- 86
2021-02-20 00:00:00 9.9 0 Calma 9 Nordeste 0 -- -- 83
2021-02-19 23:00:00 11.4 0 Calma 9 Sudeste 0 -- -- 81
2021-02-19 22:00:00 12.3 4 Este 8 Este 0 -- -- 76
2021-02-19 21:00:00 13.3 4 Sudeste 9 Este 0 -- -- 73
2021-02-19 20:00:00 14.6 4 Este 12 Sudoeste 0 -- -- 67
2021-02-19 19:00:00 16.4 7 Sur 16 Sur 0 -- -- 57
2021-02-19 18:00:00 19.1 11 Sur 22 Sur 0 -- -- 50
2021-02-19 17:00:00 20.7 17 Sur 23 Sur 0 -- -- 46
2021-02-19 16:00:00 20.6 14 Sudeste 26 Sudeste 0 -- -- 46
2021-02-19 15:00:00 21.4 15 Sur 26 Sur 0 -- -- 45
2021-02-19 14:00:00 20.1 20 Sur 26 Sudoeste 0 -- -- 51
2021-02-19 13:00:00 18.2 15 Sudeste 24 Sur 0 -- -- 60
2021-02-19 12:00:00 15.4 12 Sudeste 17 Sur 0 -- -- 69
2021-02-19 11:00:00 11.9 6 Sudeste 10 Este 0 -- -- 80
2021-02-19 10:00:00 9.1 3 Sur 6 Sur 0 -- -- 86
2021-02-19 09:00:00 6.2 0 Calma 4 Sudeste 0 -- -- 89
2021-02-19 08:00:00 6.3 0 Calma 2 Sudoeste 0 -- -- 87
2021-02-19 07:00:00 6.9 0 Calma 2 Este 0 -- -- 85
2021-02-19 06:00:00 7.3 0 Calma 2 Noroeste 0 -- -- 83
2021-02-19 05:00:00 8.1 0 Calma 3 Noroeste 0 -- -- 80
2021-02-19 04:00:00 8.7 0 Calma 4 Nordeste 0 -- -- 78
2021-02-19 03:00:00 9.5 0 Calma 7 Oeste 0 -- -- 78
2021-02-19 02:00:00 10.2 0 Calma 5 Noroeste 0 -- -- 77
2021-02-19 01:00:00 11 0 Calma 8 Nordeste 0 -- -- 77
2021-02-19 00:00:00 11.9 0 Calma 5 Nordeste 0 -- -- 77
2021-02-18 23:00:00 13.2 0 Calma 16 Norte 0 -- -- 78
2021-02-18 22:00:00 14.2 9 Norte 17 Noroeste 0 -- -- 74
2021-02-18 21:00:00 15.5 9 Norte 15 Norte 0 -- -- 70
2021-02-18 20:00:00 16.7 8 Norte 13 Norte 0 -- -- 65
2021-02-18 19:00:00 19.1 6 Noroeste 17 Noroeste 0 -- -- 60
2021-02-18 18:00:00 22.3 9 Oeste 18 Oeste 0 -- -- 50
2021-02-18 17:00:00 21.6 4 Noroeste 18 Oeste 0 -- -- 53
2021-02-18 16:00:00 23.6 6 Oeste 14 Sur 0 -- -- 41
2021-02-18 15:00:00 22.5 7 Sur 12 Sur 0 -- -- 43
2021-02-18 14:00:00 20.9 6 Sur 13 Sur 0 -- -- 44
2021-02-18 13:00:00 19.4 7 Sur 15 Sudeste 0 -- -- 51
2021-02-18 12:00:00 16.8 8 Sur 15 Sur 0 -- -- 59
2021-02-18 11:00:00 13.6 3 Sudeste 6 Sudeste 0 -- -- 72
2021-02-18 10:00:00 9.2 2 Oeste 5 Oeste 0 -- -- 87
2021-02-18 09:00:00 6.9 0 Calma 7 Noroeste 0 -- -- 90
2021-02-18 08:00:00 6.7 0 Calma 2 Nordeste 0 -- -- 90
2021-02-18 07:00:00 6.8 0 Calma 7 Norte 0 -- -- 90
2021-02-18 06:00:00 6.7 0 Calma 5 Norte 0 -- -- 90
2021-02-18 05:00:00 6.8 2 Noroeste 5 Noroeste 0 -- -- 91
2021-02-18 04:00:00 7.2 2 Oeste 5 Noroeste 0 -- -- 90
2021-02-18 03:00:00 7.4 0 Calma 2 Noroeste 0 -- -- 89
2021-02-18 02:00:00 7.8 0 Calma 3 Oeste 0 -- -- 87
2021-02-18 01:00:00 8.4 0 Calma 3 Sur 0 -- -- 85
2021-02-18 00:00:00 9.1 0 Calma 2 Oeste 0 -- -- 84
2021-02-17 23:00:00 10.3 0 Calma 5 Este 0 -- -- 79
2021-02-17 22:00:00 11.7 4 Este 9 Sudeste 0 -- -- 80
2021-02-17 21:00:00 13 8 Sudeste 10 Sudeste 0 -- -- 71
2021-02-17 20:00:00 16 5 Este 11 Este 0 -- -- 56
2021-02-17 19:00:00 17.9 5 Sudeste 13 Sudeste 0 -- -- 47
2021-02-17 18:00:00 20.5 11 Sur 16 Sur 0 -- -- 43
2021-02-17 17:00:00 22.1 10 Sur 16 Sur 0 -- -- 46
2021-02-17 16:00:00 21.7 12 Sur 23 Sur 0 -- -- 49
2021-02-17 15:00:00 21.3 14 Sur 25 Sudeste 0 -- -- 52
2021-02-17 14:00:00 20.3 14 Sur 22 Sudeste 0 -- -- 53
2021-02-17 13:00:00 18.6 14 Sudeste 23 Sudeste 0 -- -- 62
2021-02-17 12:00:00 15.8 6 Sudeste 14 Sur 0 -- -- 73
2021-02-17 11:00:00 12.4 3 Sudeste 6 Sudeste 0 -- -- 85
2021-02-17 10:00:00 8.3 0 Calma 3 Sur 0 -- -- 95
2021-02-17 09:00:00 6.8 0 Calma 3 Noroeste 0 -- -- 95
2021-02-17 08:00:00 6.4 0 Calma 5 Noroeste 0 -- -- 94
2021-02-17 07:00:00 6.4 4 Norte 5 Norte 0 -- -- 94
2021-02-17 06:00:00 6.5 0 Calma 3 Norte 0 -- -- 94
2021-02-17 05:00:00 6.5 3 Norte 5 Noroeste 0 -- -- 93
2021-02-17 04:00:00 6.9 0 Calma 3 Noroeste 0 -- -- 93
2021-02-17 03:00:00 7.4 0 Calma 3 Nordeste 0 -- -- 92
2021-02-17 02:00:00 7.7 0 Calma 2 Sur 0 -- -- 91
2021-02-17 01:00:00 8.3 0 Calma 2 Este 0 -- -- 90
2021-02-17 00:00:00 9.1 0 Calma 4 Sudeste 0 -- -- 89
2021-02-16 23:00:00 10 0 Calma 6 Este 0 -- -- 87
2021-02-16 22:00:00 10.9 5 Este 8 Este 0 -- -- 85
2021-02-16 21:00:00 11.8 3 Sudeste 12 Sudeste 0 -- -- 82
2021-02-16 20:00:00 13 6 Sudeste 13 Sur 0 -- -- 76
2021-02-16 19:00:00 15.3 10 Sur 15 Sur 0 -- -- 68
2021-02-16 18:00:00 19.1 9 Sur 14 Sur 0 -- -- 53
2021-02-16 17:00:00 19.6 9 Sur 15 Sur 0 -- -- 53
2021-02-16 16:00:00 19.6 9 Sur 19 Sur 0 -- -- 50
2021-02-16 15:00:00 18.7 9 Sur 17 Sudeste 0 -- -- 51
2021-02-16 14:00:00 17.5 8 Sur 17 Sur 0 -- -- 58
2021-02-16 13:00:00 15.7 11 Sur 21 Sudeste 0 -- -- 65
2021-02-16 12:00:00 13.4 10 Sudeste 17 Este 0 -- -- 73
2021-02-16 11:00:00 11.3 3 Sudeste 8 Sudeste 0 -- -- 86
2021-02-16 10:00:00 9.6 2 Este 5 Este 0 -- -- 92
2021-02-16 09:00:00 7.6 0 Calma 5 Este 0 -- -- 91
2021-02-16 08:00:00 7.2 2 Este 7 Este 0 -- -- 89
2021-02-16 07:00:00 7.4 3 Este 13 Este 0 -- -- 88
2021-02-16 06:00:00 7.8 7 Este 13 Este 0 -- -- 88
2021-02-16 05:00:00 8.1 9 Este 13 Este 0 -- -- 87
2021-02-16 04:00:00 8.5 10 Este 13 Este 0 -- -- 87
2021-02-16 03:00:00 9 9 Este 12 Este 0 -- -- 87
2021-02-16 02:00:00 9.7 8 Este 12 Este 0 -- -- 87
2021-02-16 01:00:00 9.9 6 Este 10 Sudeste 0 -- -- 87
2021-02-16 00:00:00 10.7 6 Sudeste 13 Sudeste 0 -- -- 86
2021-02-15 23:00:00 11.1 9 Sudeste 14 Sudeste 0 -- -- 87
2021-02-15 22:00:00 11 12 Sudeste 16 Sudeste 0 -- -- 87
2021-02-15 21:00:00 11.1 10 Sudeste 17 Sudeste 0 -- -- 84
2021-02-15 20:00:00 11.7 13 Sur 23 Sur 0 -- -- 80
2021-02-15 19:00:00 13.1 18 Sur 30 Sudeste 0 -- -- 70
2021-02-15 18:00:00 14.8 21 Sudeste 42 Sudeste 0 -- -- 57
2021-02-15 17:00:00 15.5 24 Sudeste 40 Sur 0 -- -- 56
2021-02-15 16:00:00 16 27 Sudeste 39 Sudeste 0 -- -- 63
2021-02-15 15:00:00 16.2 24 Sudeste 41 Sudeste 0 -- -- 58
2021-02-15 14:00:00 16.2 28 Sudeste 52 Sudeste 0 -- -- 59
2021-02-15 13:00:00 15.8 29 Sudeste 45 Sur 0 -- -- 61
2021-02-15 12:00:00 14.8 27 Sudeste 44 Sudeste 0 -- -- 68
2021-02-15 11:00:00 14 22 Sudeste 38 Sur 0 -- -- 75
2021-02-15 10:00:00 12.7 22 Sudeste 36 Sudeste 0 -- -- 82
2021-02-15 09:00:00 11.7 15 Sudeste 21 Sur 0 -- -- 87
2021-02-15 08:00:00 11.4 13 Sudeste 23 Sudeste 0 -- -- 87
2021-02-15 07:00:00 11.5 13 Sudeste 19 Sudeste 0 -- -- 86
2021-02-15 06:00:00 11.3 11 Sudeste 18 Sudeste 0 -- -- 86
2021-02-15 05:00:00 11.1 11 Sudeste 19 Sur 0 -- -- 85
2021-02-15 04:00:00 10.3 12 Sudeste 18 Sur 0 -- -- 86
2021-02-15 03:00:00 10.1 13 Sudeste 18 Sudeste 0 -- -- 86
2021-02-15 02:00:00 10.7 12 Sudeste 17 Sudeste 0 -- -- 86
2021-02-15 01:00:00 10.8 10 Sudeste 17 Sudeste 0 -- -- 87
2021-02-15 00:00:00 11 10 Sudeste 18 Sudeste 0 -- -- 86
2021-02-14 23:00:00 11.1 12 Sudeste 19 Sur 0 -- -- 85
2021-02-14 22:00:00 11.9 12 Sur 21 Sur 0 -- -- 85
2021-02-14 21:00:00 12.4 10 Sur 29 Sur 0 -- -- 82
2021-02-14 20:00:00 13.3 17 Sur 25 Sur 0 -- -- 79
2021-02-14 19:00:00 14.1 15 Sur 26 Sur 0 -- -- 76
2021-02-14 18:00:00 16.5 19 Sur 29 Sur 0 -- -- 63
2021-02-14 17:00:00 18.2 17 Sudeste 31 Sur 0 -- -- 49
2021-02-14 16:00:00 18.7 18 Sudeste 36 Este 0 -- -- 48
2021-02-14 15:00:00 19 17 Sudeste 41 Sudeste 0 -- -- 45
2021-02-14 14:00:00 19.1 23 Sudeste 37 Sudeste 0 -- -- 44
2021-02-14 13:00:00 18.8 23 Sudeste 34 Sudeste 0 -- -- 44
2021-02-14 12:00:00 18.2 16 Sur 22 Sur 0 -- -- 51
2021-02-14 11:00:00 13.9 4 Sudeste 7 Sudeste 0 -- -- 60
2021-02-14 10:00:00 9.1 0 Calma 4 Sur 0 -- -- 77
2021-02-14 09:00:00 7.3 0 Calma 4 Norte 0 -- -- 80
2021-02-14 08:00:00 6.7 4 Noroeste 7 Noroeste 0 -- -- 77
2021-02-14 07:00:00 7.9 2 Norte 6 Oeste 0 -- -- 74
2021-02-14 06:00:00 8.7 3 Norte 7 Noroeste 0 -- -- 70
2021-02-14 05:00:00 9.8 3 Oeste 9 Nordeste 0 -- -- 65
2021-02-14 04:00:00 10.2 6 Noroeste 15 Noroeste 0 -- -- 65
2021-02-14 03:00:00 11.6 4 Oeste 27 Noroeste 0 -- -- 60
2021-02-14 02:00:00 12.3 17 Norte 26 Noroeste 0 -- -- 56
2021-02-14 01:00:00 12.7 6 Norte 18 Norte 0 -- -- 56
2021-02-14 00:00:00 12.9 7 Norte 17 Norte 0 -- -- 55
2021-02-13 23:00:00 13 8 Norte 24 Norte 0 -- -- 56
2021-02-13 22:00:00 13.5 17 Noroeste 22 Noroeste 0 -- -- 55
2021-02-13 21:00:00 14.8 12 Norte 21 Norte 0 -- -- 52
2021-02-13 20:00:00 16.8 8 Norte 17 Oeste 0 -- -- 47
2021-02-13 19:00:00 18.3 8 Noroeste 17 Noroeste 0 -- -- 39
2021-02-13 18:00:00 21.2 9 Noroeste 23 Noroeste 0 -- -- 40
2021-02-13 17:00:00 21.6 7 Noroeste 27 Noroeste 0 -- -- 41
2021-02-13 16:00:00 20.2 9 Noroeste 31 Oeste 0 -- -- 48
2021-02-13 15:00:00 21.3 11 Noroeste 27 Oeste 0 -- -- 42
2021-02-13 14:00:00 20 10 Noroeste 28 Noroeste 0 -- -- 44
2021-02-13 13:00:00 20.6 11 Noroeste 26 Noroeste 0 -- -- 48
2021-02-13 08:00:00 -- -- -- -- -- -- -- -- --
2021-02-13 07:00:00 -- -- -- -- -- -- -- -- --
2021-02-13 06:00:00 10.9 9 Noroeste 24 Noroeste 0 -- -- 77
2021-02-13 05:00:00 11.3 12 Noroeste 24 Oeste 0 -- -- 75
2021-02-13 04:00:00 11.7 14 Noroeste 26 Noroeste 0 -- -- 73
2021-02-13 03:00:00 11.4 10 Noroeste 19 Oeste 0 -- -- 74
2021-02-13 02:00:00 12.7 9 Noroeste 17 Oeste 0 -- -- 68
2021-02-13 01:00:00 13.1 5 Norte 15 Noroeste 0 -- -- 67
2021-02-13 00:00:00 13.1 3 Nordeste 15 Oeste 0 -- -- 68
2021-02-12 23:00:00 13.6 3 Nordeste 25 Oeste 0 -- -- 67
2021-02-12 22:00:00 14.4 9 Noroeste 33 Noroeste 0 -- -- 64
2021-02-12 21:00:00 14.6 11 Noroeste 25 Noroeste 0 -- -- 65
2021-02-12 20:00:00 15.5 15 Noroeste 41 Noroeste 0 -- -- 63
2021-02-12 19:00:00 16.1 15 Noroeste 36 Noroeste 0 -- -- 61
2021-02-12 18:00:00 18.5 14 Noroeste 33 Oeste 0 -- -- 54
2021-02-12 17:00:00 19.8 13 Noroeste 38 Oeste 0 -- -- 50
2021-02-12 16:00:00 20.6 15 Noroeste 40 Oeste 0 -- -- 47
2021-02-12 15:00:00 20.8 15 Noroeste 37 Oeste 0 -- -- 45
2021-02-12 14:00:00 20.5 12 Noroeste 40 Oeste 0 -- -- 51
2021-02-12 13:00:00 20.2 12 Noroeste 32 Oeste 0 -- -- 56
2021-02-12 12:00:00 18.7 8 Noroeste 22 Oeste 0 -- -- 68
2021-02-12 11:00:00 16.9 8 Noroeste 23 Noroeste 0 -- -- 76
2021-02-12 10:00:00 16.1 6 Norte 14 Norte 0 -- -- 78
2021-02-12 09:00:00 14.9 8 Noroeste 21 Noroeste 0 -- -- 82
2021-02-12 08:00:00 14.4 7 Noroeste 23 Oeste 0 -- -- 81
2021-02-12 07:00:00 13.8 5 Noroeste 17 Oeste 0 -- -- 81
2021-02-12 06:00:00 14.7 5 Noroeste 24 Noroeste 0 -- -- 77
2021-02-12 05:00:00 15.1 10 Noroeste 27 Norte 0 -- -- 77
2021-02-12 04:00:00 14.9 9 Noroeste 26 Oeste 0 -- -- 77
2021-02-12 03:00:00 14.4 8 Noroeste 31 Oeste 0 -- -- 79
2021-02-12 02:00:00 14.6 14 Noroeste 32 Oeste 0 -- -- 80
2021-02-12 01:00:00 15 9 Noroeste 19 Noroeste 0 -- -- 81
2021-02-12 00:00:00 15.1 8 Noroeste 20 Noroeste 0 -- -- 82
2021-02-11 23:00:00 15.3 6 Noroeste 17 Noroeste 0 -- -- 80
2021-02-11 22:00:00 15.6 9 Norte 16 Norte 0 -- -- 78
2021-02-11 21:00:00 15.9 8 Norte 17 Norte 0 -- -- 79
2021-02-11 20:00:00 16.4 8 Noroeste 19 Noroeste 0 -- -- 77
2021-02-11 19:00:00 17.3 8 Noroeste 24 Oeste 0 -- -- 73
2021-02-11 18:00:00 18.8 11 Noroeste 27 Oeste 0 -- -- 68
2021-02-11 17:00:00 20.7 14 Noroeste 28 Oeste 0 -- -- 62
2021-02-11 16:00:00 21.1 16 Noroeste 31 Oeste 0 -- -- 62
2021-02-11 15:00:00 20.6 16 Noroeste 40 Noroeste 0 -- -- 63
2021-02-11 14:00:00 20.1 19 Oeste 34 Oeste 0 -- -- 65
2021-02-11 13:00:00 19.2 15 Noroeste 33 Oeste 0 -- -- 70
2021-02-11 12:00:00 18.7 11 Noroeste 32 Oeste 0 -- -- 69
2021-02-11 11:00:00 17.5 15 Noroeste 27 Oeste 0 -- -- 73
2021-02-11 10:00:00 16.1 9 Noroeste 21 Oeste 0 -- -- 78
2021-02-11 09:00:00 13.9 4 Norte 14 Noroeste 0 -- -- 84
2021-02-11 08:00:00 14 4 Noroeste 11 Noroeste 0 -- -- 86
2021-02-11 07:00:00 14.2 6 Noroeste 10 Norte 0 -- -- 86
2021-02-11 06:00:00 14.7 4 Noroeste 12 Norte 0 -- -- 84
2021-02-11 05:00:00 15 2 Norte 6 Oeste 0 -- -- 81
2021-02-11 04:00:00 14.8 3 Oeste 5 Oeste 0 -- -- 82
2021-02-11 03:00:00 14.5 3 Oeste 13 Oeste 0 -- -- 83
2021-02-11 02:00:00 14.7 10 Oeste 13 Oeste 0 -- -- 81
2021-02-11 01:00:00 15.2 7 Noroeste 23 Oeste 0 -- -- 79
2021-02-11 00:00:00 15.1 3 Sudoeste 19 Noroeste 0 -- -- 78
2021-02-10 23:00:00 15.6 11 Noroeste 24 Nordeste 0 -- -- 76
2021-02-10 22:00:00 15.7 13 Nordeste 19 Nordeste 0 -- -- 76
2021-02-10 21:00:00 15.8 9 Noroeste 23 Oeste 0 -- -- 76
2021-02-10 20:00:00 16.2 9 Noroeste 34 Oeste 0 -- -- 75
2021-02-10 19:00:00 16.8 17 Noroeste 41 Oeste 0 -- -- 74
2021-02-10 18:00:00 18.8 21 Oeste 44 Oeste 0 -- -- 67
2021-02-10 17:00:00 19.9 19 Oeste 41 Oeste 0 -- -- 66
2021-02-10 16:00:00 20.1 20 Noroeste 39 Oeste 0 -- -- 66
2021-02-10 15:00:00 19.9 19 Noroeste 40 Oeste 0 -- -- 67
2021-02-10 14:00:00 19.8 14 Noroeste 42 Oeste 0 -- -- 69
2021-02-10 13:00:00 18.6 13 Noroeste 33 Oeste 0 -- -- 71
2021-02-10 12:00:00 16.8 11 Oeste 36 Oeste 0 -- -- 74
2021-02-10 11:00:00 15.8 11 Noroeste 29 Noroeste 0 -- -- 77
2021-02-10 10:00:00 13.5 11 Oeste 33 Sudoeste 0 -- -- 88
2021-02-10 09:00:00 12.4 8 Sur 15 Sur 0 -- -- 91
2021-02-10 08:00:00 12.2 0 Calma 7 Noroeste 0 -- -- 91
2021-02-10 07:00:00 12.1 0 Calma 9 Oeste 0 -- -- 91
2021-02-10 06:00:00 12.4 0 Calma 19 Noroeste 0 -- -- 89
2021-02-10 05:00:00 13.5 9 Norte 30 Oeste 0 -- -- 81
2021-02-10 04:00:00 14.4 17 Noroeste 40 Oeste 0 -- -- 72
2021-02-10 03:00:00 14.4 18 Oeste 54 Oeste 0 -- -- 69
2021-02-10 02:00:00 13.1 20 Oeste 42 Oeste 0.2 -- -- 83
2021-02-10 01:00:00 13.3 8 Oeste 32 Oeste 0 -- -- 82
2021-02-10 00:00:00 13.4 10 Sudoeste 35 Oeste 0.8 -- -- 83
2021-02-09 23:00:00 13.5 2 Oeste 16 Noroeste 0 -- -- 83
2021-02-09 22:00:00 13.4 4 Norte 21 Nordeste 0 -- -- 84
2021-02-09 21:00:00 13.8 4 Norte 14 Noroeste 0 -- -- 84
2021-02-09 20:00:00 14.5 4 Norte 12 Sudoeste 0 -- -- 79
2021-02-09 19:00:00 15.2 4 Sur 32 Oeste 0 -- -- 73
2021-02-09 18:00:00 15.2 6 Oeste 24 Oeste 0.6 -- -- 80
2021-02-09 17:00:00 17.8 15 Oeste 47 Sudoeste 0 -- -- 59
2021-02-09 16:00:00 18 15 Sur 38 Sudoeste 0 -- -- 65
2021-02-09 15:00:00 16.5 11 Sudeste 21 Sur 0 -- -- 74
2021-02-09 14:00:00 16.9 5 Sudeste 21 Nordeste 0 -- -- 63
2021-02-09 13:00:00 15.8 2 Noroeste 12 Este 0 -- -- 66
2021-02-09 12:00:00 14.1 4 Este 13 Nordeste 0 -- -- 75
2021-02-09 11:00:00 12.1 2 Sur 7 Sur 0 -- -- 81
2021-02-09 10:00:00 10.9 2 Norte 10 Norte 0 -- -- 81
2021-02-09 09:00:00 10.3 5 Este 9 Sudeste 0 -- -- 79
2021-02-09 08:00:00 11.1 6 Sudeste 16 Norte 0 -- -- 74
2021-02-09 07:00:00 12.5 4 Norte 21 Norte 0 -- -- 64
2021-02-09 06:00:00 11.6 4 Norte 17 Norte 0 -- -- 69
2021-02-09 05:00:00 10.9 0 Calma 10 Nordeste 0 -- -- 79
2021-02-09 04:00:00 10.5 4 Nordeste 18 Noroeste 0 -- -- 80
2021-02-09 03:00:00 11.9 6 Noroeste 21 Noroeste 0 -- -- 75
2021-02-09 02:00:00 12.7 4 Norte 20 Norte 0 -- -- 72
2021-02-09 01:00:00 13 6 Norte 17 Norte 0 -- -- 73
2021-02-09 00:00:00 12.5 9 Norte 30 Noroeste 0 -- -- 77
2021-02-08 23:00:00 13.6 12 Noroeste 23 Noroeste 0 -- -- 69
2021-02-08 22:00:00 13.6 8 Noroeste 20 Noroeste 0 -- -- 71
2021-02-08 21:00:00 13.3 9 Noroeste 22 Noroeste 0 -- -- 69
2021-02-08 20:00:00 13.5 8 Noroeste 20 Oeste 0 -- -- 64
2021-02-08 19:00:00 14.4 9 Noroeste 37 Oeste 0 -- -- 61
2021-02-08 18:00:00 16.1 22 Oeste 43 Oeste 0 -- -- 54
2021-02-08 17:00:00 16.8 14 Oeste 42 Oeste 0 -- -- 53
2021-02-08 16:00:00 17.1 22 Oeste 50 Oeste 0 -- -- 49
2021-02-08 15:00:00 17.7 22 Noroeste 45 Oeste 0 -- -- 49
2021-02-08 14:00:00 17 15 Noroeste 51 Oeste 0 -- -- 57
2021-02-08 13:00:00 14.6 24 Noroeste 49 Noroeste 0 -- -- 59
2021-02-08 12:00:00 13.4 19 Noroeste 40 Oeste 0 -- -- 68
2021-02-08 11:00:00 12.1 14 Noroeste 32 Noroeste 0 -- -- 83
2021-02-08 10:00:00 10.8 6 Noroeste 16 Noroeste 0 -- -- 90
2021-02-08 09:00:00 10.5 12 Noroeste 33 Noroeste 3.8 -- -- 92
2021-02-08 08:00:00 10.7 8 Noroeste 15 Noroeste 2.2 -- -- 93
2021-02-08 07:00:00 10.4 6 Noroeste 10 Oeste 0.2 -- -- 91
2021-02-08 06:00:00 10.3 5 Norte 10 Noroeste 0.6 -- -- 85
2021-02-08 05:00:00 10 4 Noroeste 8 Nordeste 0 -- -- 80
2021-02-08 04:00:00 9.9 3 Noroeste 7 Norte 0 -- -- 78
2021-02-08 03:00:00 9.9 3 Norte 9 Este 0 -- -- 74
2021-02-08 02:00:00 10 6 Sudeste 10 Sudeste 0 -- -- 76
2021-02-08 01:00:00 10.5 3 Sudeste 9 Nordeste 0 -- -- 75
2021-02-08 00:00:00 10.9 2 Norte 13 Sur 0 -- -- 73
2021-02-07 23:00:00 11.2 10 Noroeste 24 Oeste 0 -- -- 72
2021-02-07 22:00:00 10.8 6 Norte 16 Noroeste 0 -- -- 71
2021-02-07 21:00:00 10.6 10 Noroeste 22 Oeste 0 -- -- 66
2021-02-07 20:00:00 10.8 8 Noroeste 31 Oeste 0 -- -- 66
2021-02-07 19:00:00 11.2 19 Noroeste 37 Oeste 0 -- -- 61
2021-02-07 18:00:00 11.7 20 Noroeste 57 Noroeste 0 -- -- 59
2021-02-07 17:00:00 13.2 23 Noroeste 48 Oeste 0 -- -- 53
2021-02-07 16:00:00 14.4 18 Noroeste 46 Oeste 0 -- -- 56
2021-02-07 15:00:00 14.2 23 Noroeste 50 Noroeste 0 -- -- 56
2021-02-07 14:00:00 13.9 15 Noroeste 38 Oeste 0 -- -- 64
2021-02-07 13:00:00 13.7 17 Noroeste 39 Oeste 0 -- -- 69
2021-02-07 12:00:00 13.2 14 Noroeste 30 Oeste 0 -- -- 70
2021-02-07 11:00:00 12.3 10 Noroeste 24 Noroeste 0 -- -- 77
2021-02-07 10:00:00 11.5 6 Noroeste 21 Noroeste 0 -- -- 80
2021-02-07 09:00:00 10.5 7 Noroeste 15 Norte 0 -- -- 82
2021-02-07 08:00:00 10.3 0 Calma 8 Oeste 0 -- -- 81
2021-02-07 07:00:00 9.9 2 Oeste 8 Noroeste 0 -- -- 83
2021-02-07 06:00:00 9.5 7 Noroeste 13 Norte 0 -- -- 86
2021-02-07 05:00:00 9.4 8 Noroeste 19 Noroeste 0 -- -- 85
2021-02-07 04:00:00 9.8 4 Noroeste 10 Noroeste 0 -- -- 83
2021-02-07 03:00:00 9.9 3 Norte 8 Noroeste 0 -- -- 81
2021-02-07 02:00:00 9.9 6 Noroeste 14 Oeste 0 -- -- 79
2021-02-07 01:00:00 10.3 3 Sudeste 18 Noroeste 0 -- -- 77
2021-02-07 00:00:00 11.1 10 Noroeste 23 Noroeste 0 -- -- 75
2021-02-06 23:00:00 11.2 7 Noroeste 21 Noroeste 0 -- -- 76
2021-02-06 22:00:00 11.7 8 Noroeste 17 Noroeste 0 -- -- 75
2021-02-06 21:00:00 11.8 4 Noroeste 12 Noroeste 0 -- -- 76
2021-02-06 20:00:00 12.4 5 Noroeste 12 Oeste 0 -- -- 71
2021-02-06 19:00:00 12.6 2 Nordeste 16 Noroeste 0 -- -- 77
2021-02-06 18:00:00 14 6 Noroeste 20 Sudoeste 0 -- -- 70
2021-02-06 17:00:00 14.5 13 Sur 31 Sur 0 -- -- 65
2021-02-06 16:00:00 15 24 Sur 32 Sur 0 -- -- 61
2021-02-06 15:00:00 17.3 18 Sur 28 Sur 0 -- -- 58
2021-02-06 14:00:00 17.4 15 Sur 23 Sur 0 -- -- 57
2021-02-06 13:00:00 16.6 10 Sur 23 Sudoeste 0 -- -- 60
2021-02-06 12:00:00 16.1 16 Sur 25 Sur 0 -- -- 62
2021-02-06 11:00:00 13.1 2 Este 9 Oeste 0 -- -- 79
2021-02-06 10:00:00 11.3 3 Norte 8 Noroeste 0 -- -- 89
2021-02-06 09:00:00 9.9 5 Sudoeste 26 Oeste 0 -- -- 90
2021-02-06 08:00:00 10.3 5 Oeste 12 Oeste 0.2 -- -- 90
2021-02-06 07:00:00 10.8 5 Oeste 12 Norte 0 -- -- 90
2021-02-06 06:00:00 11.3 4 Norte 7 Norte 0 -- -- 89
2021-02-06 05:00:00 11.7 0 Calma 9 Este 0 -- -- 87
2021-02-06 04:00:00 11.6 8 Sudeste 19 Sudeste 0 -- -- 87
2021-02-06 03:00:00 11 6 Sur 27 Sur 0.8 -- -- 90
2021-02-06 02:00:00 12.3 10 Sur 23 Sudeste 0 -- -- 78
2021-02-06 01:00:00 12.2 15 Sur 31 Sur 0.2 -- -- 79
2021-02-06 00:00:00 13 10 Sur 22 Este 0 -- -- 71
2021-02-05 23:00:00 12.7 8 Sur 14 Sudeste 0 -- -- 73
2021-02-05 22:00:00 12.4 4 Norte 12 Este 0 -- -- 71
2021-02-05 21:00:00 13.6 6 Nordeste 15 Sudoeste 0 -- -- 65
2021-02-05 20:00:00 14.2 5 Sudoeste 27 Sudoeste 0 -- -- 62
2021-02-05 19:00:00 15.2 19 Sur 27 Sur 0 -- -- 58
2021-02-05 18:00:00 16.7 12 Sudeste 22 Sudeste 0 -- -- 66
2021-02-05 17:00:00 17.3 9 Sudeste 19 Sudeste 0 -- -- 65
2021-02-05 16:00:00 17.9 11 Este 23 Este 0 -- -- 60
2021-02-05 15:00:00 19.2 14 Sudeste 25 Sudeste 0 -- -- 58
2021-02-05 14:00:00 18.2 10 Sudeste 19 Sur 0 -- -- 63
2021-02-05 13:00:00 16.9 8 Sur 21 Sur 0 -- -- 70
2021-02-05 12:00:00 16.8 11 Sur 18 Sur 0 -- -- 72
2021-02-05 11:00:00 14.1 3 Sudoeste 6 Sur 0 -- -- 82
2021-02-05 10:00:00 10.5 2 Noroeste 6 Nordeste 0 -- -- 90
2021-02-05 09:00:00 9.2 0 Calma 8 Norte 0 -- -- 90
2021-02-05 08:00:00 9.1 0 Calma 4 Oeste 0 -- -- 91
2021-02-05 07:00:00 9.4 2 Oeste 4 Oeste 0 -- -- 91
2021-02-05 06:00:00 9.5 0 Calma 3 Norte 0 -- -- 91
2021-02-05 05:00:00 9.9 0 Calma 4 Oeste 0 -- -- 90
2021-02-05 04:00:00 9.8 2 Noroeste 8 Este 0 -- -- 88
2021-02-05 03:00:00 10.8 0 Calma 6 Este 0 -- -- 87
2021-02-05 02:00:00 11.3 0 Calma 4 Sudeste 0 -- -- 87
2021-02-05 01:00:00 11.5 4 Noroeste 6 Norte 0 -- -- 87
2021-02-05 00:00:00 11.8 0 Calma 8 Norte 0 -- -- 86
2021-02-04 23:00:00 12.2 2 Sudeste 10 Nordeste 0 -- -- 83
2021-02-04 22:00:00 12.9 2 Sur 10 Este 0 -- -- 81
2021-02-04 21:00:00 14.1 3 Sudeste 6 Sudoeste 0 -- -- 77
2021-02-04 20:00:00 15.2 4 Este 10 Sudeste 0 -- -- 73
2021-02-04 19:00:00 16.1 7 Sudeste 10 Sudeste 0 -- -- 69
2021-02-04 18:00:00 17.7 9 Sur 17 Sur 0 -- -- 63
2021-02-04 17:00:00 17.7 14 Sur 20 Sur 0 -- -- 62
2021-02-04 16:00:00 18.6 16 Sur 28 Sudeste 0 -- -- 59
2021-02-04 15:00:00 19.4 20 Sur 26 Sudeste 0 -- -- 57
2021-02-04 14:00:00 19 17 Sur 28 Sur 0 -- -- 58
2021-02-04 13:00:00 17.7 15 Sur 20 Sur 0 -- -- 64
2021-02-04 12:00:00 15.2 12 Sudeste 17 Sudeste 0 -- -- 76
2021-02-04 11:00:00 12.4 3 Este 5 Este 0 -- -- 88
2021-02-04 10:00:00 10.7 0 Calma 4 Nordeste 0 -- -- 92
2021-02-04 09:00:00 10 2 Este 4 Este 0 -- -- 90
2021-02-04 08:00:00 10.2 0 Calma 6 Noroeste 0 -- -- 89
2021-02-04 07:00:00 10.9 3 Noroeste 5 Oeste 0 -- -- 87
2021-02-04 06:00:00 11.1 0 Calma 8 Este 0 -- -- 87
2021-02-04 05:00:00 11.3 0 Calma 4 Noroeste 0 -- -- 86
2021-02-04 04:00:00 11.6 2 Noroeste 13 Norte 0 -- -- 85
2021-02-04 03:00:00 12.3 7 Norte 17 Norte 0 -- -- 82
2021-02-04 02:00:00 12.6 9 Noroeste 15 Noroeste 0 -- -- 81
2021-02-04 01:00:00 13.1 9 Noroeste 18 Oeste 0 -- -- 79
2021-02-04 00:00:00 13.4 11 Noroeste 19 Noroeste 0 -- -- 78